Portada
METAR-TAF:

METAR-TAF

Aeroports :

Dehradun, Índia

latitud: 30-11-23N, longitud: 78-10-49E, altitud: 558 m

METAR: manca

Hora: 09:55 (04:25 UTC)

Pronòstic

L'informe es va fer fa 5 hores i 25 minuts, a les 23:00 UTC
Pronòstic vàlid del 07 a les 00 UTC al 07 a les 09 UTC
Vent 5 kt del Nord-Est
Visibilitat: 4000 m
Núvols disperses a una alçada de 3000 ft
Cel ennuvolat a una alçada de 8000 ft
calitja
Temporalment
l' 07 a les 05 UTC al 07 a les 09 UTC
Vent 8 kt del Est amb ràfegues de 18 kt
Visibilitat: 2500 m
Escasses núvols a una alçada de 3500 ft, Cumulonimbus.
Cel ennuvolat a una alçada de 7000 ft
tempesta, pluja

TAF: VIDN 062300Z 0700/0709 05005KT 4000 HZ SCT030 BKN080 TEMPO 0705/0709 09008G18KT 2500 -TSRA FEW035CB BKN070

Observacions i pronòstics meteorològics de més de 4000 aeroports (METAR i TAF).

Les estacions disponibles són els punts grocs i vermells al mapa.

Posi el ratolí al punt desitjat per veure el nom de l'estació.

Feu clic per veure les observacions i els pronòstics meteorològics.

Per canviar el mapa: feu clic els botons verds amb una creu de color negre per apropar; al botó verd amb un guió per allunyar la imatge; o en les fletxes verdes per a mapes adjacents.


METAR-TAF: